HE42 weather

Quwaysina Airport
Minya Governorate, Egypt

Public forecast

Using degrees Celsius for public forecast. Weather courtesy of forecast.io.

Closest aviation weather report (METAR) to Quwaysina Airport

Closest report is Cairo International Airport, 31.0 nm (57.3 km) SSE. Retrieved 2019/10/21 21:00 UTC (15 minutes ago):

HECA 212100Z 05007KT CAVOK 25/20 Q1012

Closest aviation forecast (TAF) to Quwaysina Airport

Closest forecast is Cairo International Airport, 31.0 nm (57.3 km) SSE. Retrieved 2019/10/21 18:16 UTC (3 hours ago):

TAF COR HECA 211745Z 2118/2224 02013KT 6000 SCT025 BKN030 TEMPO 2118/2212 4000TSRA BKN020CB